Time;durP1;ratioP1;P1;durP2;ratioP2;P2;SDS_P1;SDS_P2;PMS_P1;PMS_P2;Temp;Humidity;BMP_temperature;BMP_pressure;BME280_temperature;BME280_humidity;BME280_pressure;Samples;Min_cycle;Max_cycle;Signal;HPM_P1;HPM_P2
2021/04/22 00:01:38;;;;;;;18.05;4.00;;;;;;;4.25;56.42;100899.84;4987151;28;20034;-80
2021/04/22 00:04:05;;;;;;;22.70;3.80;;;;;;;4.28;56.32;100898.03;5000941;28;20060;-82
2021/04/22 00:06:32;;;;;;;19.30;5.97;;;;;;;4.23;56.80;100896.41;4999856;28;20070;-82
2021/04/22 00:08:59;;;;;;;14.75;2.50;;;;;;;4.23;56.58;100904.25;5003239;28;21056;-83
2021/04/22 00:11:26;;;;;;;15.30;3.08;;;;;;;4.19;57.05;100894.81;4999790;28;20044;-81
2021/04/22 00:13:52;;;;;;;12.27;2.50;;;;;;;4.12;56.83;100907.16;4987747;28;20039;-80
2021/04/22 00:16:19;;;;;;;21.88;3.55;;;;;;;4.09;57.13;100912.44;4992732;28;20034;-79
2021/04/22 00:18:46;;;;;;;16.40;3.72;;;;;;;4.14;57.31;100910.56;4995258;28;20050;-81
2021/04/22 00:21:14;;;;;;;12.48;3.10;;;;;;;4.18;56.47;100903.50;4996379;28;20038;-79
2021/04/22 00:23:41;;;;;;;14.95;3.65;;;;;;;4.27;55.76;100911.06;5000344;28;20105;-80
2021/04/22 00:26:08;;;;;;;19.42;4.10;;;;;;;4.38;55.50;100911.63;4993034;28;20027;-78
2021/04/22 00:28:34;;;;;;;18.25;3.65;;;;;;;4.51;55.19;100909.53;4982685;28;20544;-80
2021/04/22 00:31:01;;;;;;;18.52;3.38;;;;;;;4.57;55.06;100911.94;5009465;28;20069;-80
2021/04/22 00:33:28;;;;;;;20.52;3.20;;;;;;;4.59;55.23;100902.31;4999941;28;20046;-79
2021/04/22 00:35:55;;;;;;;20.15;4.05;;;;;;;4.66;54.46;100908.22;5010809;28;20033;-79
2021/04/22 00:38:21;;;;;;;18.85;4.60;;;;;;;4.70;54.75;100905.47;4996227;28;20045;-77
2021/04/22 00:40:48;;;;;;;15.88;2.92;;;;;;;4.61;54.09;100912.72;5014518;28;20034;-78
2021/04/22 00:43:18;;;;;;;18.10;3.25;;;;;;;4.70;54.52;100907.22;5015508;28;20053;-79
2021/04/22 00:45:46;;;;;;;15.63;3.22;;;;;;;4.85;54.00;100911.97;5017305;28;20431;-77
2021/04/22 00:48:16;;;;;;;25.98;3.35;;;;;;;4.80;54.22;100906.91;4997172;28;20046;-82
2021/04/22 00:50:43;;;;;;;18.63;3.58;;;;;;;4.77;54.38;100909.63;5002016;28;20026;-78
2021/04/22 00:53:11;;;;;;;20.92;3.67;;;;;;;4.78;53.79;100918.28;5019470;28;20748;-79
2021/04/22 00:55:38;;;;;;;19.48;3.25;;;;;;;4.87;54.22;100909.34;4988080;28;20062;-82
2021/04/22 00:58:06;;;;;;;17.52;4.07;;;;;;;4.79;53.73;100913.03;4993927;28;20120;-79
2021/04/22 01:00:34;;;;;;;17.40;3.15;;;;;;;4.80;53.86;100914.72;5004616;28;20054;-82
2021/04/22 01:03:01;;;;;;;16.70;3.03;;;;;;;4.93;53.54;100922.19;4974094;28;20129;-82
2021/04/22 01:05:37;;;;;;;18.50;3.25;;;;;;;4.92;53.18;100920.47;5010450;28;20103;-79
2021/04/22 01:08:04;;;;;;;15.30;3.60;;;;;;;4.96;53.83;100919.47;4986757;28;20074;-81
2021/04/22 01:10:31;;;;;;;18.65;3.42;;;;;;;4.85;53.80;100924.16;5005191;28;20064;-80
2021/04/22 01:12:58;;;;;;;20.58;3.72;;;;;;;4.97;53.90;100929.88;4987141;28;20078;-80
2021/04/22 01:15:27;;;;;;;16.38;3.83;;;;;;;5.01;54.07;100922.78;5001739;28;20058;-79
2021/04/22 01:17:55;;;;;;;22.50;4.45;;;;;;;5.08;53.54;100926.91;4993373;28;20078;-79
2021/04/22 01:20:25;;;;;;;16.42;3.53;;;;;;;5.05;54.07;100924.41;4981365;28;20061;-80
2021/04/22 01:22:54;;;;;;;17.63;3.60;;;;;;;4.94;54.21;100927.34;4985618;28;20383;-82
2021/04/22 01:25:27;;;;;;;17.20;4.50;;;;;;;5.06;55.03;100932.19;4984345;28;20054;-80
2021/04/22 01:27:54;;;;;;;19.70;4.85;;;;;;;5.14;54.30;100933.72;4988171;28;20219;-82
2021/04/22 01:30:27;;;;;;;16.50;4.35;;;;;;;5.05;54.78;100929.63;4989724;28;20065;-81
2021/04/22 01:32:54;;;;;;;28.33;4.18;;;;;;;5.19;54.33;100929.19;5004311;28;20034;-82
2021/04/22 01:35:23;;;;;;;18.30;4.32;;;;;;;5.05;55.42;100927.88;4978619;28;20121;-82
2021/04/22 01:37:50;;;;;;;17.48;3.50;;;;;;;5.13;55.13;100929.38;5000349;28;20100;-82
2021/04/22 01:40:18;;;;;;;18.98;3.45;;;;;;;5.08;55.28;100925.16;4966029;28;20093;-78
2021/04/22 01:42:45;;;;;;;24.02;5.45;;;;;;;5.19;55.54;100921.38;5002925;28;20049;-83
2021/04/22 01:45:13;;;;;;;21.80;3.72;;;;;;;5.12;55.50;100925.06;5001932;28;20291;-81
2021/04/22 01:47:40;;;;;;;20.75;4.00;;;;;;;5.08;56.14;100930.38;4984220;28;20159;-81
2021/04/22 01:50:09;;;;;;;19.95;5.28;;;;;;;5.19;55.41;100937.03;4984459;28;20114;-81
2021/04/22 01:52:36;;;;;;;17.20;3.78;;;;;;;5.07;56.09;100933.03;4987434;28;20038;-80
2021/04/22 01:55:05;;;;;;;14.00;3.65;;;;;;;5.11;56.63;100932.03;5007354;28;20049;-79
2021/04/22 01:57:32;;;;;;;15.98;4.10;;;;;;;5.18;56.44;100930.97;4975674;28;21046;-81
2021/04/22 01:59:59;;;;;;;19.30;3.38;;;;;;;5.13;56.37;100927.63;4997217;28;20118;-80
2021/04/22 02:02:26;;;;;;;17.63;4.38;;;;;;;5.17;56.84;100936.19;4988737;28;20042;-81
2021/04/22 02:04:53;;;;;;;23.90;4.63;;;;;;;4.99;56.70;100933.25;5017248;28;20054;-81
2021/04/22 02:07:20;;;;;;;20.00;3.83;;;;;;;5.05;57.75;100921.81;5010787;28;20067;-80
2021/04/22 02:09:46;;;;;;;26.23;4.28;;;;;;;5.06;56.87;100931.34;5004821;28;20085;-79
2021/04/22 02:12:13;;;;;;;25.55;5.95;;;;;;;5.10;57.25;100937.31;4997333;28;20047;-81
2021/04/22 02:14:40;;;;;;;27.50;5.18;;;;;;;5.07;57.58;100928.66;4983832;28;20137;-82
2021/04/22 02:17:06;;;;;;;18.25;4.00;;;;;;;4.83;58.24;100938.09;4988080;28;20050;-79
2021/04/22 02:19:33;;;;;;;17.52;4.13;;;;;;;4.70;58.31;100934.16;5017411;28;20069;-79
2021/04/22 02:22:00;;;;;;;18.58;3.90;;;;;;;4.79;58.48;100933.88;5017721;28;20097;-78
2021/04/22 02:24:26;;;;;;;22.80;4.13;;;;;;;4.91;58.43;100937.88;4989983;28;20126;-79
2021/04/22 02:26:53;;;;;;;28.80;6.80;;;;;;;4.96;58.41;100936.00;4995122;28;20065;-78
2021/04/22 02:29:20;;;;;;;19.95;4.65;;;;;;;4.84;58.54;100936.34;4983109;28;20063;-81
2021/04/22 02:31:47;;;;;;;13.82;3.65;;;;;;;4.97;58.08;100934.22;4998688;28;20133;-80
2021/04/22 02:34:13;;;;;;;28.50;5.22;;;;;;;4.94;57.86;100932.56;5008254;28;20101;-80
2021/04/22 02:36:40;;;;;;;34.45;4.30;;;;;;;4.98;58.00;100934.16;5011152;28;20122;-78
2021/04/22 02:39:07;;;;;;;19.08;3.60;;;;;;;5.02;57.55;100930.56;5001225;28;20086;-80
2021/04/22 02:41:34;;;;;;;20.52;4.82;;;;;;;5.01;57.38;100928.03;4999875;28;20090;-79
2021/04/22 02:44:01;;;;;;;15.43;3.30;;;;;;;4.92;57.80;100936.97;5003177;28;20207;-82
2021/04/22 02:46:28;;;;;;;16.50;3.80;;;;;;;4.90;57.66;100937.91;5000885;28;20074;-81
2021/04/22 02:48:54;;;;;;;28.58;4.45;;;;;;;4.93;57.69;100941.28;5009274;28;20126;-82
2021/04/22 02:51:21;;;;;;;21.63;4.45;;;;;;;4.94;58.05;100934.31;5004671;28;20081;-80
2021/04/22 02:53:48;;;;;;;20.60;3.63;;;;;;;5.00;58.21;100936.75;4990658;28;20046;-79
2021/04/22 02:56:15;;;;;;;20.77;3.38;;;;;;;4.91;58.12;100937.00;4999199;28;20046;-80
2021/04/22 02:58:41;;;;;;;20.85;4.78;;;;;;;4.98;58.09;100931.56;4984398;28;20229;-82
2021/04/22 03:01:09;;;;;;;21.73;3.75;;;;;;;4.80;58.55;100932.13;4984167;28;20114;-79
2021/04/22 03:03:35;;;;;;;26.15;4.20;;;;;;;4.71;59.38;100938.47;5007766;28;20097;-79
2021/04/22 03:06:03;;;;;;;18.63;4.72;;;;;;;4.69;59.21;100942.03;4987115;28;20730;-81
2021/04/22 03:08:29;;;;;;;19.83;4.25;;;;;;;4.64;59.61;100936.06;4988336;28;20084;-82
2021/04/22 03:10:56;;;;;;;19.00;3.67;;;;;;;4.78;58.97;100936.56;5004285;28;20064;-79
2021/04/22 03:13:23;;;;;;;15.00;3.47;;;;;;;4.77;59.43;100940.91;4986576;28;20070;-81
2021/04/22 03:15:50;;;;;;;20.92;4.18;;;;;;;4.77;59.59;100946.13;5000317;28;20126;-79
2021/04/22 03:18:17;;;;;;;26.80;4.60;;;;;;;4.82;59.81;100940.78;4980355;28;20050;-79
2021/04/22 03:20:43;;;;;;;18.35;4.28;;;;;;;4.76;59.93;100943.53;5006279;28;20150;-78
2021/04/22 03:23:10;;;;;;;19.23;3.95;;;;;;;4.73;59.92;100943.66;4998570;28;20594;-79
2021/04/22 03:25:37;;;;;;;26.33;4.97;;;;;;;4.77;59.76;100950.47;4977683;28;20448;-80
2021/04/22 03:28:05;;;;;;;27.25;4.90;;;;;;;4.71;60.23;100940.22;4983502;28;20050;-79
2021/04/22 03:30:32;;;;;;;18.42;4.25;;;;;;;4.77;60.22;100940.91;4990637;28;20041;-79
2021/04/22 03:32:59;;;;;;;24.83;4.70;;;;;;;4.70;60.68;100946.34;4993330;28;20085;-80
2021/04/22 03:35:27;;;;;;;19.05;3.90;;;;;;;4.66;60.97;100956.00;4981758;28;20153;-83
2021/04/22 03:37:54;;;;;;;21.20;5.47;;;;;;;4.57;61.51;100954.53;4997793;28;20086;-78
2021/04/22 03:40:23;;;;;;;20.20;4.20;;;;;;;4.65;61.80;100948.25;4996260;28;20089;-81
2021/04/22 03:42:49;;;;;;;18.25;3.63;;;;;;;4.66;61.29;100945.56;4995967;28;20070;-80
2021/04/22 03:45:17;;;;;;;21.02;3.97;;;;;;;4.52;61.62;100945.13;4986042;28;20054;-78
2021/04/22 03:47:44;;;;;;;25.10;4.10;;;;;;;4.60;61.95;100947.53;5009750;28;20051;-80
2021/04/22 03:50:12;;;;;;;18.27;4.60;;;;;;;4.75;61.29;100952.28;4990261;28;20122;-78
2021/04/22 03:52:39;;;;;;;24.13;4.05;;;;;;;4.69;61.62;100940.28;4990926;28;20084;-80
2021/04/22 03:55:07;;;;;;;20.08;4.03;;;;;;;4.67;61.47;100951.66;4990600;28;20066;-79
2021/04/22 03:57:34;;;;;;;15.45;3.60;;;;;;;4.69;61.69;100944.66;4992461;28;20065;-79
2021/04/22 04:00:04;;;;;;;20.10;5.13;;;;;;;4.81;60.76;100949.47;4998537;28;20061;-80
2021/04/22 04:02:31;;;;;;;17.63;3.50;;;;;;;4.76;60.99;100947.00;5003900;28;20054;-81
2021/04/22 04:04:58;;;;;;;22.63;4.07;;;;;;;4.82;61.13;100953.81;4986165;28;20035;-83
2021/04/22 04:07:25;;;;;;;18.02;4.28;;;;;;;4.71;61.80;100958.47;4994927;28;20086;-80
2021/04/22 04:09:51;;;;;;;17.83;3.92;;;;;;;4.65;61.71;100956.06;4995815;28;20046;-81
2021/04/22 04:12:18;;;;;;;23.20;4.50;;;;;;;4.63;61.65;100948.25;5008591;28;20114;-79
2021/04/22 04:14:45;;;;;;;18.05;3.72;;;;;;;4.57;61.60;100953.66;4998064;28;20479;-80
2021/04/22 04:17:12;;;;;;;15.30;4.43;;;;;;;4.53;62.09;100944.22;5005709;28;20054;-78
2021/04/22 04:19:38;;;;;;;22.35;4.80;;;;;;;4.68;61.87;100941.16;4989840;28;20055;-78
2021/04/22 04:22:05;;;;;;;15.48;3.78;;;;;;;4.46;61.82;100953.13;4991133;28;20078;-79
2021/04/22 04:24:32;;;;;;;31.70;4.75;;;;;;;4.67;61.39;100954.25;4990611;28;20090;-81
2021/04/22 04:26:58;;;;;;;19.48;3.78;;;;;;;4.71;61.30;100953.25;5006602;28;20035;-80
2021/04/22 04:29:25;;;;;;;22.92;4.15;;;;;;;4.68;61.37;100961.16;4998823;28;20073;-80
2021/04/22 04:31:52;;;;;;;19.77;4.03;;;;;;;4.84;60.85;100957.22;4966348;28;20118;-80
2021/04/22 04:34:19;;;;;;;21.25;4.78;;;;;;;4.85;61.07;100960.69;4979376;28;20119;-80
2021/04/22 04:36:47;;;;;;;22.98;4.50;;;;;;;4.85;60.87;100963.28;4996909;28;20597;-78
2021/04/22 04:39:14;;;;;;;21.27;4.72;;;;;;;4.81;61.02;100949.47;4998644;28;20085;-79
2021/04/22 04:41:42;;;;;;;28.40;4.72;;;;;;;4.87;61.04;100962.34;4996145;28;20171;-80
2021/04/22 04:44:09;;;;;;;18.73;4.18;;;;;;;4.97;61.29;100962.94;4981538;28;20050;-78
2021/04/22 04:46:38;;;;;;;20.02;4.88;;;;;;;5.04;60.77;100972.25;4998959;28;20050;-83
2021/04/22 04:49:06;;;;;;;35.95;5.07;;;;;;;5.02;60.50;100967.09;4985116;28;20544;-78
2021/04/22 04:51:32;;;;;;;19.73;4.07;;;;;;;5.10;60.42;100974.69;5002736;28;20038;-78
2021/04/22 04:53:59;;;;;;;29.65;4.07;;;;;;;5.14;60.35;100978.06;4990879;28;20038;-78
2021/04/22 04:56:26;;;;;;;18.58;3.63;;;;;;;5.00;60.01;100979.34;5014944;28;20042;-79
2021/04/22 04:58:53;;;;;;;19.20;4.57;;;;;;;4.97;60.75;100978.59;5014301;28;20073;-79
2021/04/22 05:01:20;;;;;;;23.17;5.35;;;;;;;5.08;60.64;100977.34;4988468;28;20165;-80
2021/04/22 05:03:46;;;;;;;24.10;4.60;;;;;;;5.30;60.08;100981.91;5011538;28;20034;-78
2021/04/22 05:06:13;;;;;;;29.50;6.47;;;;;;;5.42;59.70;100981.53;5000902;28;20070;-79
2021/04/22 05:08:41;;;;;;;19.05;4.25;;;;;;;5.61;58.73;100978.31;4987179;28;20070;-81
2021/04/22 05:11:09;;;;;;;17.23;3.63;;;;;;;5.93;57.85;100978.13;4985906;28;20122;-77
2021/04/22 05:13:36;;;;;;;21.85;5.10;;;;;;;5.93;57.45;100978.13;4988034;28;20038;-80
2021/04/22 05:16:03;;;;;;;25.92;3.97;;;;;;;5.87;57.91;100977.44;5016925;28;20097;-80
2021/04/22 05:18:29;;;;;;;26.92;4.40;;;;;;;5.69;58.06;100977.16;5003369;28;20077;-80
2021/04/22 05:21:22;;;;;;;18.75;4.03;;;;;;;5.52;58.46;100977.69;5021242;28;20058;-80
2021/04/22 05:23:48;;;;;;;18.30;3.90;;;;;;;6.05;57.21;100975.09;5011252;28;20057;-78
2021/04/22 05:26:19;;;;;;;28.00;4.03;;;;;;;5.76;57.76;100985.63;5014511;28;20104;-81
2021/04/22 05:28:46;;;;;;;21.23;5.38;;;;;;;6.01;56.53;100983.09;4991389;28;20046;-78
2021/04/22 05:31:14;;;;;;;22.15;3.33;;;;;;;5.85;57.57;100985.31;4986441;28;20114;-80
2021/04/22 05:33:40;;;;;;;19.83;3.42;;;;;;;5.94;56.75;100979.81;5011075;28;20054;-78
2021/04/22 05:36:08;;;;;;;21.83;3.72;;;;;;;5.98;56.90;100986.66;5014787;28;20054;-78
2021/04/22 05:38:34;;;;;;;21.33;3.70;;;;;;;6.22;56.12;100990.19;5016665;28;20062;-78
2021/04/22 05:41:01;;;;;;;18.52;4.22;;;;;;;5.94;57.05;100998.09;5010051;28;20062;-78
2021/04/22 05:43:28;;;;;;;16.08;4.03;;;;;;;6.42;56.10;101007.78;5015133;28;20049;-78
2021/04/22 05:45:55;;;;;;;22.60;4.20;;;;;;;6.17;56.58;101002.59;4988053;28;20106;-78
2021/04/22 05:48:21;;;;;;;17.05;3.75;;;;;;;6.32;55.96;100999.41;5000930;28;20081;-78
2021/04/22 05:50:48;;;;;;;27.33;4.97;;;;;;;6.11;56.83;101004.53;5009152;28;20077;-79
2021/04/22 05:53:16;;;;;;;20.15;4.28;;;;;;;6.51;56.06;101015.31;5014754;28;20023;-77
2021/04/22 05:55:43;;;;;;;18.73;4.05;;;;;;;6.52;55.64;101022.22;5005236;28;20081;-79
2021/04/22 05:58:10;;;;;;;19.42;3.58;;;;;;;6.65;56.01;101020.03;5017334;28;20033;-77
2021/04/22 06:00:37;;;;;;;16.92;3.72;;;;;;;6.82;55.05;101024.66;4991738;28;20133;-77
2021/04/22 06:03:05;;;;;;;25.35;4.00;;;;;;;6.65;55.83;101025.28;4988166;28;20098;-78
2021/04/22 06:05:31;;;;;;;19.30;3.88;;;;;;;7.00;54.93;101020.50;4979914;28;20577;-78
2021/04/22 06:07:59;;;;;;;16.15;3.55;;;;;;;7.15;54.09;101019.91;5000371;28;20042;-80
2021/04/22 06:10:25;;;;;;;19.08;4.05;;;;;;;6.46;56.14;101021.63;4996891;28;20054;-79
2021/04/22 06:12:52;;;;;;;19.27;4.32;;;;;;;6.85;55.12;101029.78;4998593;28;20150;-80
2021/04/22 06:15:20;;;;;;;19.05;4.25;;;;;;;7.06;54.44;101026.34;4982581;28;20069;-80
2021/04/22 06:17:47;;;;;;;23.38;3.97;;;;;;;6.81;54.77;101028.19;4973603;28;20451;-79
2021/04/22 06:20:20;;;;;;;14.52;3.78;;;;;;;6.81;55.04;101036.03;4976576;28;20069;-78
2021/04/22 06:22:48;;;;;;;18.08;4.20;;;;;;;7.04;54.05;101029.94;4975811;28;20074;-79
2021/04/22 06:25:17;;;;;;;18.42;4.43;;;;;;;7.07;54.24;101022.00;4973728;28;20070;-79
2021/04/22 06:27:44;;;;;;;23.33;3.65;;;;;;;6.77;55.14;101029.22;4992987;28;20117;-79
2021/04/22 06:30:12;;;;;;;19.20;3.85;;;;;;;7.10;54.06;101035.78;4995820;28;20038;-78
2021/04/22 06:32:39;;;;;;;16.33;3.83;;;;;;;7.49;52.79;101035.16;4972577;28;20192;-79
2021/04/22 06:35:07;;;;;;;14.55;3.85;;;;;;;7.70;52.01;101032.59;4998199;28;20105;-81
2021/04/22 06:37:48;;;;;;;17.58;3.70;;;;;;;7.26;52.90;101035.22;4960626;28;20043;-77
2021/04/22 06:40:21;;;;;;;16.25;3.80;;;;;;;6.97;54.18;101042.41;4952537;28;20041;-79
2021/04/22 06:43:16;;;;;;;25.15;5.72;;;;;;;7.44;53.24;101031.88;5002636;28;20602;-78
2021/04/22 06:45:44;;;;;;;22.45;4.22;;;;;;;7.05;54.63;101044.72;4996840;28;20113;-78
2021/04/22 06:48:12;;;;;;;24.02;4.50;;;;;;;7.53;53.57;101046.38;4998204;28;20726;-79
2021/04/22 06:50:40;;;;;;;18.98;3.97;;;;;;;8.00;51.94;101044.44;5000619;28;20054;-78
2021/04/22 06:53:07;;;;;;;24.05;4.13;;;;;;;7.95;52.19;101043.78;4975545;28;20054;-77
2021/04/22 06:55:34;;;;;;;20.13;3.80;;;;;;;7.80;52.24;101041.81;4992566;28;20050;-78
2021/04/22 06:58:04;;;;;;;23.02;4.97;;;;;;;8.04;51.94;101048.66;4997727;28;20074;-79
2021/04/22 07:00:34;;;;;;;21.15;4.30;;;;;;;7.97;52.60;101052.47;4990640;28;20076;-80
2021/04/22 07:03:00;;;;;;;17.85;4.10;;;;;;;7.99;52.59;101050.63;5009435;28;20077;-79
2021/04/22 07:05:28;;;;;;;13.70;3.63;;;;;;;8.57;51.33;101042.06;4999332;28;20038;-79
2021/04/22 07:07:55;;;;;;;23.02;4.35;;;;;;;9.73;47.93;101041.09;5013836;28;20065;-79
2021/04/22 07:10:22;;;;;;;12.70;3.95;;;;;;;11.87;42.44;101030.56;5006956;28;20062;-79
2021/04/22 07:12:49;;;;;;;22.05;3.45;;;;;;;12.21;41.13;101039.16;5003899;28;20192;-79
2021/04/22 07:15:16;;;;;;;19.80;3.85;;;;;;;10.76;44.21;101042.00;5007133;28;20526;-79
2021/04/22 07:17:50;;;;;;;17.33;4.88;;;;;;;10.39;45.58;101041.28;4966778;28;20201;-80
2021/04/22 07:20:20;;;;;;;18.45;3.95;;;;;;;11.24;43.80;101043.75;4969589;28;20053;-79
2021/04/22 07:22:54;;;;;;;12.70;3.80;;;;;;;9.86;46.47;101052.69;4988313;28;20138;-79
2021/04/22 07:25:22;;;;;;;19.10;3.65;;;;;;;9.13;48.06;101052.63;4997435;28;20073;-79
2021/04/22 07:27:52;;;;;;;25.45;4.50;;;;;;;9.42;47.79;101052.22;5007043;28;20109;-79
2021/04/22 07:30:27;;;;;;;21.85;3.92;;;;;;;8.81;49.30;101056.72;4975347;28;20053;-79
2021/04/22 07:32:53;;;;;;;20.92;3.72;;;;;;;9.25;48.38;101056.47;5000900;28;20061;-78
2021/04/22 07:35:20;;;;;;;14.55;3.88;;;;;;;10.00;46.53;101052.03;4982053;28;20100;-79
2021/04/22 07:37:48;;;;;;;23.48;4.35;;;;;;;10.53;45.65;101065.09;5000659;28;20066;-79
2021/04/22 07:40:18;;;;;;;13.65;4.03;;;;;;;10.11;45.88;101062.84;4997110;28;20129;-80
2021/04/22 07:42:46;;;;;;;19.38;4.00;;;;;;;9.79;46.91;101057.41;4993089;28;20090;-79
2021/04/22 07:45:16;;;;;;;20.67;3.65;;;;;;;9.54;48.07;101070.84;5002230;28;20133;-79
2021/04/22 07:47:43;;;;;;;12.38;3.13;;;;;;;9.62;47.64;101071.34;5000129;28;20313;-78
2021/04/22 07:50:12;;;;;;;17.95;4.32;;;;;;;10.15;46.78;101069.66;5001190;28;20042;-78
2021/04/22 07:52:39;;;;;;;18.30;3.88;;;;;;;11.45;43.02;101073.38;4978237;28;20442;-80
2021/04/22 07:55:09;;;;;;;23.02;3.17;;;;;;;10.22;45.41;101075.47;5005643;28;20061;-79
2021/04/22 07:57:38;;;;;;;17.33;3.75;;;;;;;9.74;46.94;101080.44;4989106;28;20074;-79
2021/04/22 08:00:11;;;;;;;14.98;3.47;;;;;;;9.90;47.43;101084.00;4996385;28;20034;-80
2021/04/22 08:02:41;;;;;;;17.25;4.00;;;;;;;11.82;43.53;101087.13;4975867;28;20142;-79
2021/04/22 08:05:10;;;;;;;13.73;3.13;;;;;;;14.39;36.81;101071.16;4993736;28;20456;-80
2021/04/22 08:07:40;;;;;;;15.15;3.28;;;;;;;13.48;38.04;101075.44;4998210;28;20127;-81
2021/04/22 08:10:15;;;;;;;14.07;3.42;;;;;;;11.33;42.09;101079.31;4999490;28;20066;-80
2021/04/22 08:12:46;;;;;;;18.30;3.70;;;;;;;10.79;43.45;101078.72;4979677;28;20042;-81
2021/04/22 08:15:14;;;;;;;15.73;3.25;;;;;;;10.08;44.77;101074.38;4983290;28;20042;-78
2021/04/22 08:17:42;;;;;;;15.13;3.55;;;;;;;10.82;43.80;101078.56;5011405;28;20062;-81
2021/04/22 08:20:14;;;;;;;13.65;3.10;;;;;;;13.56;37.77;101071.34;4984623;28;20546;-79
2021/04/22 08:22:41;;;;;;;11.60;2.90;;;;;;;14.88;35.31;101078.44;4999873;28;20081;-78
2021/04/22 08:25:11;;;;;;;11.38;2.90;;;;;;;12.80;39.10;101074.31;4978263;28;20073;-82
2021/04/22 08:27:37;;;;;;;10.85;3.40;;;;;;;14.11;36.54;101083.63;4975867;28;20255;-80
2021/04/22 08:30:06;;;;;;;16.27;3.03;;;;;;;12.84;38.44;101077.63;4982312;28;20110;-79
2021/04/22 08:32:33;;;;;;;15.15;3.30;;;;;;;11.23;41.11;101080.75;4987426;28;20049;-80
2021/04/22 08:35:00;;;;;;;13.05;3.33;;;;;;;12.70;38.85;101089.03;4984688;28;20061;-81
2021/04/22 08:37:28;;;;;;;16.48;3.20;;;;;;;12.37;38.99;101081.31;4996378;28;20054;-80
2021/04/22 08:39:55;;;;;;;14.23;3.05;;;;;;;11.69;40.85;101078.22;4996181;28;20067;-81
2021/04/22 08:42:21;;;;;;;18.23;3.22;;;;;;;11.05;42.23;101072.06;4996460;28;20078;-79
2021/04/22 08:44:48;;;;;;;11.15;3.05;;;;;;;10.48;43.43;101080.28;4963755;28;20046;-80
2021/04/22 08:47:15;;;;;;;14.70;2.95;;;;;;;10.50;43.58;101080.22;4981299;28;20042;-81
2021/04/22 08:49:42;;;;;;;16.15;3.28;;;;;;;11.12;42.92;101076.03;4981344;28;20503;-80
2021/04/22 08:52:09;;;;;;;21.23;3.25;;;;;;;11.14;42.65;101082.09;4978771;28;20078;-81
2021/04/22 08:54:35;;;;;;;18.30;3.50;;;;;;;10.91;43.48;101088.59;4986171;28;20038;-79
2021/04/22 08:57:04;;;;;;;25.85;3.28;;;;;;;9.89;45.47;101094.63;4988705;28;20034;-79
2021/04/22 08:59:31;;;;;;;15.50;3.60;;;;;;;9.52;45.70;101095.53;4990439;28;20095;-79
2021/04/22 09:01:57;;;;;;;12.38;3.22;;;;;;;9.94;44.46;101092.59;5006658;28;20116;-78
2021/04/22 09:04:24;;;;;;;10.75;3.00;;;;;;;10.51;43.91;101100.34;5003369;28;20529;-77
2021/04/22 09:06:51;;;;;;;12.35;3.53;;;;;;;11.02;42.79;101103.81;4982669;28;20055;-79
2021/04/22 09:09:18;;;;;;;16.95;3.33;;;;;;;11.90;40.91;101090.22;5002710;28;20092;-79
2021/04/22 09:11:47;;;;;;;11.77;3.28;;;;;;;10.84;43.26;101103.88;4995154;28;20050;-80
2021/04/22 09:14:17;;;;;;;19.02;2.90;;;;;;;10.20;44.63;101103.63;4981819;28;20050;-79
2021/04/22 09:16:44;;;;;;;12.70;3.17;;;;;;;10.10;44.92;101103.25;4992079;28;20055;-79
2021/04/22 09:19:19;;;;;;;16.35;3.72;;;;;;;10.45;44.59;101098.03;4994223;28;20054;-78
2021/04/22 09:21:54;;;;;;;17.77;2.85;;;;;;;11.51;42.39;101095.91;4995050;28;20110;-78
2021/04/22 09:24:26;;;;;;;13.98;3.13;;;;;;;11.69;41.25;101105.44;4986002;28;20054;-79
2021/04/22 09:26:58;;;;;;;14.73;3.45;;;;;;;11.99;40.73;101088.84;4950205;28;20118;-78
2021/04/22 09:29:42;;;;;;;14.60;3.30;;;;;;;10.95;42.52;101103.31;4988222;28;20576;-78
2021/04/22 09:32:14;;;;;;;14.38;2.97;;;;;;;10.55;43.72;101109.81;4988440;28;20062;-81
2021/04/22 09:34:57;;;;;;;11.45;2.67;;;;;;;10.99;43.08;101104.88;4998638;28;20108;-80
2021/04/22 09:37:37;;;;;;;9.43;2.83;;;;;;;11.60;42.27;101096.25;4980543;28;20669;-80
2021/04/22 09:40:18;;;;;;;17.63;3.15;;;;;;;11.26;42.84;101105.16;4977983;28;20046;-78
2021/04/22 09:42:46;;;;;;;13.48;3.22;;;;;;;11.08;43.00;101099.09;4976927;28;20054;-80
2021/04/22 09:45:15;;;;;;;17.63;2.83;;;;;;;11.80;41.94;101091.66;4971896;28;20054;-80
2021/04/22 09:47:43;;;;;;;11.50;3.33;;;;;;;12.31;41.00;101098.38;4988786;28;20612;-81
2021/04/22 09:50:14;;;;;;;14.68;3.45;;;;;;;11.87;42.07;101098.31;4972516;28;20055;-80
2021/04/22 09:52:43;;;;;;;16.73;3.45;;;;;;;11.75;41.89;101106.88;4992118;28;20076;-81
2021/04/22 09:55:13;;;;;;;13.25;3.58;;;;;;;12.09;41.19;101105.84;4998081;28;20619;-81
2021/04/22 09:57:41;;;;;;;14.07;3.30;;;;;;;11.96;41.50;101097.78;4995137;28;20069;-80
2021/04/22 10:00:11;;;;;;;19.27;2.90;;;;;;;11.37;42.87;101104.56;4987763;28;20070;-79
2021/04/22 10:02:53;;;;;;;15.48;2.72;;;;;;;11.59;42.39;101101.59;4975074;28;20097;-80
2021/04/22 10:05:30;;;;;;;13.00;2.47;;;;;;;11.14;41.54;101108.44;4995060;28;20069;-81
2021/04/22 10:08:13;;;;;;;15.15;2.78;;;;;;;11.52;40.57;101108.16;5000410;28;20043;-79
2021/04/22 10:10:55;;;;;;;11.25;2.45;;;;;;;12.29;38.82;101112.59;5110644;27;20645;-75
2021/04/22 10:13:22;;;;;;;15.25;3.10;;;;;;;11.45;40.42;101112.91;5100811;28;20402;-74
2021/04/22 10:15:52;;;;;;;11.77;2.13;;;;;;;10.43;41.01;101086.72;5099886;28;20064;-75
2021/04/22 10:18:19;;;;;;;20.48;2.35;;;;;;;10.20;42.88;101096.59;5078695;28;20109;-72
2021/04/22 10:20:45;;;;;;;14.60;2.03;;;;;;;10.07;41.33;101120.03;5101737;28;20062;-74
2021/04/22 10:23:12;;;;;;;15.70;2.80;;;;;;;10.36;40.92;101107.25;5102737;28;20048;-75
2021/04/22 10:25:42;;;;;;;11.40;1.60;;;;;;;10.61;39.91;101109.47;5080937;28;20074;-74
2021/04/22 10:28:13;;;;;;;11.23;2.13;;;;;;;11.22;38.88;101108.06;5101373;28;20312;-76
2021/04/22 10:30:43;;;;;;;10.23;1.75;;;;;;;11.11;37.75;101101.53;5093913;28;20471;-75
2021/04/22 10:33:11;;;;;;;10.90;1.92;;;;;;;10.88;37.96;101086.97;5101689;28;20107;-72
2021/04/22 10:35:41;;;;;;;10.60;2.00;;;;;;;11.48;37.58;101098.69;5098723;28;20056;-72
2021/04/22 10:38:08;;;;;;;9.95;2.05;;;;;;;11.78;37.10;101094.34;5095604;28;20060;-74
2021/04/22 10:40:43;;;;;;;7.75;2.10;;;;;;;11.51;37.90;101101.19;5085577;28;20044;-78
2021/04/22 10:43:28;;;;;;;9.27;1.92;;;;;;;11.55;37.83;101102.72;5091526;28;20058;-74
2021/04/22 10:45:56;;;;;;;12.98;1.42;;;;;;;11.20;36.78;101097.56;5086222;28;20036;-74
2021/04/22 10:48:24;;;;;;;12.60;2.00;;;;;;;11.35;36.72;101107.31;5105114;28;20043;-73
2021/04/22 10:50:53;;;;;;;5.60;1.55;;;;;;;11.16;36.22;101110.06;5079168;28;20516;-74
2021/04/22 10:53:22;;;;;;;7.57;1.80;;;;;;;11.14;35.15;101103.19;5103367;28;20047;-77
2021/04/22 10:55:53;;;;;;;7.75;1.90;;;;;;;11.01;35.48;101099.50;5099433;28;20124;-73
2021/04/22 10:58:23;;;;;;;8.32;2.10;;;;;;;11.20;35.72;101091.44;5075975;28;20451;-73
2021/04/22 11:00:56;;;;;;;7.65;1.95;;;;;;;11.53;35.98;101100.16;5094338;28;20405;-73
2021/04/22 11:03:32;;;;;;;8.05;1.33;;;;;;;12.22;35.26;101100.72;5101777;28;20056;-74
2021/04/22 11:06:04;;;;;;;6.03;1.40;;;;;;;12.00;36.18;101096.66;5105429;28;20123;-73
2021/04/22 11:08:43;;;;;;;11.88;2.13;;;;;;;11.73;37.86;101101.69;5107080;28;20052;-73
2021/04/22 11:11:25;;;;;;;7.65;2.47;;;;;;;11.63;38.57;101101.34;5102544;28;20043;-75
2021/04/22 11:14:10;;;;;;;12.02;2.50;;;;;;;12.28;38.14;101105.63;5088868;28;20047;-76
2021/04/22 11:16:39;;;;;;;12.05;2.30;;;;;;;12.14;36.66;101102.00;5104960;27;20147;-74
2021/04/22 11:19:23;;;;;;;10.95;1.70;;;;;;;12.45;34.66;101094.09;5095937;28;20370;-72
2021/04/22 11:21:55;;;;;;;7.32;1.88;;;;;;;12.87;33.57;101103.84;5102516;27;20062;-75
2021/04/22 11:24:31;;;;;;;6.97;1.85;;;;;;;12.22;33.74;101098.06;5083296;28;20098;-74
2021/04/22 11:27:06;;;;;;;6.97;1.95;;;;;;;12.02;34.64;101104.47;5089143;28;20044;-75
2021/04/22 11:29:49;;;;;;;7.22;1.52;;;;;;;12.64;33.88;101099.97;5084126;28;20046;-73